Flight Track Log - Related Links

Times and Time Zones

All times are in EDT time to prevent confusion due to time zone crossing. See the N77VZ flight status page for this flight to view local times or setup timezone preferences in your user account.

Time Position Orientation Groundspeed Altitude Reporting Facility
EDT Latitude Longitude Course Direction KTS MPH feet Rate Location/Type
Thu 09:19:05 AM 35.6781 -80.9019 310° West 319 367 30,000  Level Atlanta Center
Thu 09:20:05 AM 35.7800 -81.0517 310° West 282 325 4,100 -11,350 Descending Atlanta Center
Thu 09:21:05 AM 35.8050 -81.1378 290° West 272 313 7,300 2,950 Climbing Atlanta Center
Thu 09:22:05 AM 35.8214 -81.2217 284° West 260 299 10,000 2,400 Climbing Atlanta Center
Thu 09:23:05 AM 35.7772 -81.2872 230° Southwest 394 453 12,100 1,950 Climbing Atlanta Center
Thu 09:24:05 AM 35.6961 -81.3053 190° South 369 425 13,900 1,750 Climbing Atlanta Center
Thu 09:25:05 AM 35.6089 -81.3261 191° South 325 374 15,600 1,800 Climbing Atlanta Center
Thu 09:26:05 AM 35.5194 -81.3392 187° South 320 368 17,500 1,750 Climbing Atlanta Center
Thu 09:27:05 AM 35.4344 -81.3547 188° South 320 368 19,100 1,550 Climbing Atlanta Center
Thu 09:28:05 AM 35.3472 -81.3728 190° South 316 364 20,600 1,450 Climbing Atlanta Center
Thu 09:29:05 AM 35.2578 -81.3883 188° South 322 371 22,000 1,450 Climbing Atlanta Center
Thu 09:30:05 AM 35.1664 -81.4067 189° South 328 377 23,500 1,550 Climbing Atlanta Center
Thu 09:31:05 AM 35.0789 -81.4194 187° South 329 379 25,100 1,550 Climbing Atlanta Center
Thu 09:32:05 AM 34.9875 -81.4378 189° South 334 384 26,600 1,450 Climbing Atlanta Center
Thu 09:33:05 AM 34.8897 -81.4533 187° South 334 384 28,000 444 Climbing Atlanta Center
Thu 09:35:14 AM 34.6778 -81.4964 189° South 365 420 28,000  Level Jacksonville Center
Thu 09:36:14 AM 34.5694 -81.5158 188° South 383 441 28,000  Level Jacksonville Center
Thu 09:37:14 AM 34.4781 -81.5300 187° South 383 441 28,000  Level Jacksonville Center
Thu 09:38:14 AM 34.3697 -81.5467 187° South 390 449 28,000  Level Jacksonville Center
Thu 09:39:14 AM 34.2633 -81.5683 190° South 390 449 28,000  Level Jacksonville Center
Thu 09:40:14 AM 34.1550 -81.5850 187° South 390 449 28,000  Level Jacksonville Center
Thu 09:41:14 AM 34.0489 -81.6044 189° South 390 449 28,000  Level Jacksonville Center
Thu 09:42:14 AM 33.9386 -81.6233 188° South 390 449 28,000  Level Jacksonville Center
Thu 09:43:14 AM 33.8322 -81.6425 189° South 390 449 28,000  Level Jacksonville Center
Thu 09:44:14 AM 33.7261 -81.6614 188° South 390 449 28,000  Level Jacksonville Center
Thu 09:45:14 AM 33.6156 -81.6806 188° South 390 449 28,000  Level Jacksonville Center
Thu 09:46:14 AM 33.5072 -81.6994 188° South 395 455 28,000  Level Jacksonville Center
Thu 09:47:14 AM 33.3989 -81.7208 189° South 395 455 28,000  Level Jacksonville Center
Thu 09:48:14 AM 33.2886 -81.7372 187° South 395 455 28,000  Level Jacksonville Center
Thu 09:49:14 AM 33.1803 -81.7583 189° South 400 460 28,000  Level Jacksonville Center
Thu 09:50:14 AM 33.0697 -81.7772 188° South 400 460 28,000  Level Jacksonville Center
Thu 09:51:14 AM 32.9489 -81.7958 187° South 408 470 28,000  Level Jacksonville Center
Thu 09:52:14 AM 32.8383 -81.8194 190° South 408 470 28,000  Level Jacksonville Center
Thu 09:53:14 AM 32.7300 -81.8356 187° South 408 470 28,000  Level Jacksonville Center
Thu 09:54:14 AM 32.6217 -81.8592 190° South 408 470 28,000  Level Jacksonville Center
Thu 09:55:14 AM 32.5214 -81.8750 188° South 408 470 28,000  Level Jacksonville Center
Thu 09:56:14 AM 32.4006 -81.8961 188° South 408 470 28,000  Level Jacksonville Center
Thu 09:57:14 AM 32.3006 -81.9119 188° South 408 470 28,000  Level Jacksonville Center
Thu 09:58:14 AM 32.1817 -81.9328 188° South 408 470 28,000  Level Jacksonville Center
Thu 09:59:14 AM 32.0711 -81.9511 188° South 408 470 28,000  Level Jacksonville Center
Thu 10:00:14 AM 31.9731 -81.9669 188° South 403 464 28,000  Level Jacksonville Center
Thu 10:01:14 AM 31.8522 -81.9778 184° South 409 471 28,000  Level Jacksonville Center
Thu 10:02:14 AM 31.7436 -81.9886 185° South 403 464 28,000  Level Jacksonville Center
Thu 10:03:14 AM 31.6311 -81.9994 185° South 397 457 28,000  Level Jacksonville Center
Thu 10:04:14 AM 31.5225 -82.0103 185° South 402 463 28,000  Level Jacksonville Center
Thu 10:05:14 AM 31.4119 -82.0236 186° South 402 463 28,000  Level Jacksonville Center
Thu 10:06:14 AM 31.3014 -82.0319 184° South 407 468 28,000  Level Jacksonville Center
Thu 10:07:14 AM 31.1928 -82.0425 185° South 407 468 28,000  Level Jacksonville Center
Thu 10:08:14 AM 31.0800 -82.0533 185° South 402 463 28,000  Level Jacksonville Center
Thu 10:09:14 AM 30.9694 -82.0639 185° South 402 463 28,000  Level Jacksonville Center
Thu 10:10:14 AM 30.8589 -82.0722 184° South 402 463 28,000  Level Jacksonville Center
Thu 10:11:14 AM 30.7483 -82.0828 185° South 402 463 28,000  Level Jacksonville Center
Thu 10:12:14 AM 30.6378 -82.0933 185° South 402 463 28,000  Level Jacksonville Center
Thu 10:13:14 AM 30.5397 -82.0992 183° South 402 463 28,000  Level Jacksonville Center
Thu 10:14:14 AM 30.4269 -82.1097 185° South 402 463 28,000  Level Jacksonville Center
Thu 10:15:14 AM 30.3164 -82.1178 184° South 402 463 28,000 -400 Level Jacksonville Center
Thu 10:16:14 AM 30.2036 -82.1283 185° South 407 468 27,200 -500 Descending Jacksonville Center
Thu 10:17:14 AM 30.0783 -82.1078 172° South 412 474 27,000 -100 Descending Jacksonville Center
Thu 10:18:14 AM 29.9781 -82.0917 172° South 412 474 27,000  Level Jacksonville Center
Thu 10:19:14 AM 29.8631 -82.0711 171° South 412 474 27,000  Level Jacksonville Center
Thu 10:20:14 AM 29.7417 -82.0411 168° South 412 474 27,000  Level Jacksonville Center
Thu 10:21:14 AM 29.6414 -82.0300 174° South 407 468 27,000  Level Jacksonville Center
Thu 10:22:14 AM 29.5306 -82.0047 169° South 407 468 27,000  Level Jacksonville Center
Thu 10:23:14 AM 29.4197 -81.9842 171° South 407 468 27,000  Level Jacksonville Center
Thu 10:24:14 AM 29.3092 -81.9592 169° South 407 468 27,000  Level Jacksonville Center
Thu 10:26:32 AM 29.0525 -81.9078 170° South 410 472 27,000  Level Miami Center
Thu 10:27:32 AM 28.9386 -81.8861 171° South 410 472 27,000  Level Miami Center
Thu 10:28:32 AM 28.8161 -81.8639 171° South 410 472 27,000  Level Miami Center
Thu 10:29:32 AM 28.7044 -81.8378 168° South 410 472 27,000  Level Miami Center
Thu 10:30:32 AM 28.5947 -81.8186 171° South 405 466 27,000  Level Miami Center
Thu 10:31:32 AM 28.4853 -81.7878 166° South 410 472 27,000 -50 Level Miami Center
Thu 10:32:32 AM 28.3756 -81.7594 167° South 410 472 26,900 -700 Descending Miami Center
Thu 10:33:32 AM 28.2600 -81.7261 166° South 415 478 25,600 -1,350 Descending Miami Center
Thu 10:34:32 AM 28.1483 -81.6931 165° South 415 478 24,200 -1,450 Descending Miami Center
Thu 10:35:32 AM 28.0386 -81.6694 169° South 420 483 22,700 -1,450 Descending Miami Center
Thu 10:36:32 AM 27.9372 -81.7003 195° South 382 440 21,300 -1,450 Descending Miami Center
Thu 10:37:32 AM 27.8489 -81.7272 195° South 373 429 19,800 -1,500 Descending Miami Center
Thu 10:38:32 AM 27.7414 -81.7531 192° South 368 423 18,300 -1,400 Descending Miami Center
Thu 10:39:32 AM 27.6472 -81.7653 187° South 352 405 17,000 -650 Descending Miami Center
Thu 10:40:32 AM 27.5539 -81.7475 170° South 347 399 17,000  Level Miami Center
Thu 10:41:32 AM 27.4739 -81.7064 155° Southeast 341 392 17,000  Level Miami Center
Thu 10:42:32 AM 27.3833 -81.6653 158° South 352 405 17,000 -250 Level Miami Center
Thu 10:43:32 AM 27.2931 -81.6194 156° South 357 411 16,500 -1,400 Descending Miami Center
Thu 10:44:32 AM 27.2047 -81.5761 156° South 352 405 14,200 -2,300 Descending Miami Center
Thu 10:45:32 AM 27.1203 -81.5378 158° South 347 399 11,900 -2,100 Descending Miami Center
Thu 10:46:32 AM 27.0361 -81.4994 158° South 341 392 10,000 -950 Descending Miami Center
Thu 10:47:32 AM 26.9519 -81.4542 154° Southeast 318 366 10,000  Level Miami Center
Thu 10:48:32 AM 26.8697 -81.4136 156° South 313 360 10,000  Level Miami Center
Thu 10:49:32 AM 26.7914 -81.3825 160° South 313 360 10,000 -400 Level Miami Center
Thu 10:50:32 AM 26.7075 -81.3933 187° South 291 335 9,200 -900 Descending Miami Center
Thu 10:51:32 AM 26.6322 -81.3975 183° South 291 335 8,200 -600 Descending Miami Center
Thu 10:52:32 AM 26.5550 -81.3992 181° South 291 335 8,000 -100 Descending Miami Center
Thu 10:53:32 AM 26.4875 -81.4150 192° South 291 335 8,000 -250 Level Miami Center
Thu 10:54:32 AM 26.4158 -81.4425 199° South 279 321 7,500 -800 Descending Miami Center
Thu 10:55:32 AM 26.3439 -81.4697 199° South 279 321 6,400 -1,100 Descending Miami Center
Thu 10:57:00 AM 26.2468 -81.5732 241° Southwest  Level FlightAware Approximate
Thu 11:04:00 AM 26.1500 -81.7667 246° West  Level FlightAware Approximate
Thu 11:05:00 AM 26.1524 -81.7756 246° West  Level Estimated
Thu 11:06:00 AM 26.1524 -81.7756 246° West  Level Estimated
Thu 11:07:00 AM 26.1524 -81.7756 246° West  Level Estimated
Thu 11:08:00 AM 26.1524 -81.7756 246° West  Level Estimated
Thu 11:09:00 AM 26.1524 -81.7756 246° West  Level Estimated
Thu 11:10:00 AM 26.1524 -81.7756 246° West  Level Estimated
Thu 11:11:00 AM 26.1524 -81.7756 246° West  Level Estimated
Thu 11:12:00 AM 26.1524 -81.7756 246° West  Level Estimated
Thu 11:13:00 AM 26.1524 -81.7756 246° West  Level Estimated

Login

Don't have an account? Register now (free) for customized features, flight alerts, and more!